TimeEDT,TemperatureF,Dew PointF,Humidity,Sea Level PressureIn,VisibilityMPH,Wind Direction,Wind SpeedMPH,Gust SpeedMPH,PrecipitationIn,Events,Conditions,WindDirDegrees,DateUTC
12:53 AM,72.0,68.0,87,30.04,6.0,Calm,Calm,-,N/A,,Clear,0,2013-07-03 04:53:00
1:53 AM,72.0,66.9,84,30.04,9.0,Calm,Calm,-,N/A,,Overcast,0,2013-07-03 05:53:00
2:53 AM,72.0,66.9,84,30.04,10.0,Calm,Calm,-,N/A,,Overcast,0,2013-07-03 06:53:00
3:53 AM,71.1,66.9,87,30.05,10.0,Calm,Calm,-,N/A,,Mostly Cloudy,0,2013-07-03 07:53:00
4:53 AM,69.1,66.0,90,30.06,8.0,Calm,Calm,-,N/A,,Clear,0,2013-07-03 08:53:00
5:53 AM,69.1,66.0,90,30.08,8.0,SSE,3.5,-,N/A,,Clear,150,2013-07-03 09:53:00
6:53 AM,69.1,66.0,90,30.09,8.0,SSE,3.5,-,N/A,,Clear,150,2013-07-03 10:53:00
7:53 AM,71.1,66.9,87,30.11,10.0,SSE,3.5,-,N/A,,Clear,160,2013-07-03 11:53:00
8:53 AM,73.0,66.9,81,30.13,10.0,SSW,4.6,-,N/A,,Clear,200,2013-07-03 12:53:00
9:53 AM,75.0,68.0,79,30.15,10.0,SSW,5.8,-,N/A,,Clear,210,2013-07-03 13:53:00
10:53 AM,78.1,69.1,74,30.15,10.0,South,6.9,-,N/A,,Mostly Cloudy,190,2013-07-03 14:53:00
11:53 AM,79.0,69.1,72,30.15,10.0,Variable,4.6,-,N/A,,Mostly Cloudy,0,2013-07-03 15:53:00
12:53 PM,82.0,68.0,62,30.14,10.0,South,9.2,-,N/A,,Partly Cloudy,190,2013-07-03 16:53:00
1:53 PM,84.0,68.0,58,30.12,10.0,SSW,8.1,-,N/A,,Scattered Clouds,210,2013-07-03 17:53:00
2:53 PM,84.9,68.0,57,30.11,10.0,South,10.4,-,N/A,,Scattered Clouds,170,2013-07-03 18:53:00
3:53 PM,82.9,68.0,60,30.10,10.0,SW,5.8,-,N/A,,Mostly Cloudy,230,2013-07-03 19:53:00
4:28 PM,78.8,68.0,69,30.13,10.0,SSE,13.8,-,N/A,Thunderstorm,Overcast,150,2013-07-03 20:28:00
4:37 PM,75.2,69.8,83,30.13,1.5,South,13.8,-,0.09,Rain,Heavy Rain,190,2013-07-03 20:37:00
4:39 PM,73.4,69.8,88,30.13,1.2,SSW,12.7,-,0.12,Rain-Thunderstorm,Heavy Thunderstorms and Rain,210,2013-07-03 20:39:00
4:49 PM,71.6,68.0,88,30.14,2.0,West,9.2,-,0.14,Rain-Thunderstorm,Light Thunderstorms and Rain,280,2013-07-03 20:49:00
4:53 PM,71.1,66.0,84,30.12,3.0,WNW,10.4,-,0.14,Rain-Thunderstorm,Light Rain,290,2013-07-03 20:53:00
5:11 PM,71.6,66.2,83,30.13,4.0,NW,3.5,-,0.02,Rain,Rain,320,2013-07-03 21:11:00
5:25 PM,71.6,66.2,83,30.13,2.5,NW,3.5,-,0.04,Rain-Thunderstorm,Rain,310,2013-07-03 21:25:00
5:38 PM,71.6,66.2,83,30.13,6.0,Calm,Calm,-,0.04,Rain-Thunderstorm,Light Rain,0,2013-07-03 21:38:00
5:53 PM,71.1,66.0,84,30.13,4.0,SSW,3.5,-,0.05,Rain-Thunderstorm,Light Thunderstorms and Rain,210,2013-07-03 21:53:00
6:00 PM,71.6,66.2,83,30.15,1.8,South,11.5,-,0.04,Rain-Thunderstorm,Heavy Thunderstorms and Rain,180,2013-07-03 22:00:00
6:09 PM,71.6,64.4,78,30.14,1.2,SSE,8.1,18.4,0.11,Rain-Thunderstorm,Heavy Thunderstorms and Rain,160,2013-07-03 22:09:00
6:12 PM,71.6,64.4,78,30.14,2.0,South,8.1,18.4,0.11,Rain-Thunderstorm,Thunderstorms and Rain,190,2013-07-03 22:12:00
6:22 PM,69.8,66.2,88,30.14,4.0,SW,3.5,-,0.12,Rain-Thunderstorm,Light Rain,230,2013-07-03 22:22:00
6:45 PM,71.6,66.2,83,30.14,8.0,East,5.8,-,0.14,Rain,Light Rain,90,2013-07-03 22:45:00
6:53 PM,71.1,66.9,87,30.13,8.0,Calm,Calm,-,0.14,Rain,Light Rain,0,2013-07-03 22:53:00
7:53 PM,71.1,68.0,90,30.12,8.0,East,3.5,-,0.00,,Mostly Cloudy,80,2013-07-03 23:53:00
8:53 PM,71.1,68.0,90,30.14,8.0,SE,5.8,-,N/A,,Mostly Cloudy,130,2013-07-04 00:53:00
9:10 PM,71.6,68.0,88,30.14,1.8,East,6.9,-,0.11,Rain,Heavy Rain,100,2013-07-04 01:10:00
9:15 PM,71.6,68.0,88,30.15,3.0,SE,5.8,-,0.11,Rain,Light Rain,140,2013-07-04 01:15:00
9:53 PM,71.1,68.0,90,30.14,8.0,Calm,Calm,-,0.11,,Partly Cloudy,0,2013-07-04 01:53:00
10:53 PM,71.1,68.0,90,30.14,8.0,ESE,3.5,-,N/A,,Mostly Cloudy,120,2013-07-04 02:53:00
11:53 PM,71.1,68.0,90,30.13,9.0,SE,3.5,-,N/A,,Mostly Cloudy,140,2013-07-04 03:53:00